createdAt,value
2023-03-04T00:02:20.493Z,35.78
2023-03-04T00:04:47.390Z,36.50
2023-03-04T00:07:16.914Z,38.53
2023-03-04T00:09:46.060Z,38.17
2023-03-04T00:12:13.349Z,37.22
2023-03-04T00:14:40.662Z,40.88
2023-03-04T00:17:07.627Z,38.47
2023-03-04T00:19:35.494Z,37.15
2023-03-04T00:22:03.979Z,37.80
2023-03-04T00:24:31.444Z,37.20
2023-03-04T00:26:58.349Z,35.63
2023-03-04T00:29:25.249Z,34.20
2023-03-04T00:31:52.235Z,33.78
2023-03-04T00:34:19.519Z,34.08
2023-03-04T00:36:46.729Z,31.92
2023-03-04T00:39:13.809Z,32.83
2023-03-04T00:41:41.202Z,32.65
2023-03-04T00:44:08.208Z,31.05
2023-03-04T00:46:35.064Z,31.27
2023-03-04T00:49:01.883Z,30.48
2023-03-04T00:51:28.732Z,29.75
2023-03-04T00:53:55.560Z,30.50
2023-03-04T00:56:22.368Z,29.10
2023-03-04T00:58:49.267Z,28.60
2023-03-04T01:01:16.163Z,29.10
2023-03-04T01:03:43.058Z,26.75
2023-03-04T01:06:11.426Z,26.92
2023-03-04T01:08:39.317Z,26.33
2023-03-04T01:11:06.337Z,24.38
2023-03-04T01:13:33.657Z,24.88
2023-03-04T01:16:01.068Z,23.80
2023-03-04T01:18:27.888Z,23.88
2023-03-04T01:20:54.905Z,24.33
2023-03-04T01:23:21.748Z,25.38
2023-03-04T01:25:48.703Z,24.30
2023-03-04T01:28:15.520Z,27.92
2023-03-04T01:30:42.372Z,27.17
2023-03-04T01:33:09.339Z,27.20
2023-03-04T01:35:36.256Z,26.40
2023-03-04T01:38:04.287Z,25.20
2023-03-04T01:40:32.482Z,25.67
2023-03-04T01:42:59.688Z,27.10
2023-03-04T01:45:26.647Z,26.50
2023-03-04T01:47:53.542Z,25.27
2023-03-04T01:50:27.446Z,26.33
2023-03-04T01:52:54.508Z,25.88
2023-03-04T01:55:22.899Z,25.13
2023-03-04T01:57:51.118Z,25.70
2023-03-04T02:00:26.700Z,24.55
2023-03-04T02:02:58.012Z,25.27
2023-03-04T02:07:53.119Z,23.20
2023-03-04T02:10:20.295Z,23.90
2023-03-04T02:12:47.443Z,23.48
2023-03-04T02:15:14.293Z,26.55
2023-03-04T02:17:41.730Z,26.15
2023-03-04T02:20:53.368Z,24.67
2023-03-04T02:23:38.116Z,26.30
2023-03-04T02:26:28.385Z,25.75
2023-03-04T02:28:58.050Z,25.90
2023-03-04T02:31:25.304Z,24.95
2023-03-04T02:33:54.437Z,25.98
2023-03-04T02:36:22.318Z,26.35
2023-03-04T02:38:51.824Z,25.33
2023-03-04T02:41:23.374Z,27.17
2023-03-04T02:46:19.185Z,25.73
2023-03-04T02:48:46.073Z,26.10
2023-03-04T02:51:12.843Z,26.77
2023-03-04T02:53:39.679Z,26.48
2023-03-04T02:56:07.082Z,25.98
2023-03-04T02:58:38.342Z,25.50
2023-03-04T03:01:06.653Z,25.98
2023-03-04T03:03:33.859Z,25.75
2023-03-04T03:06:00.897Z,26.55
2023-03-04T03:08:27.703Z,28.38
2023-03-04T03:10:54.829Z,28.42
2023-03-04T03:13:23.260Z,28.48
2023-03-04T03:15:50.890Z,26.33
2023-03-04T03:18:17.815Z,27.55
2023-03-04T03:20:44.731Z,26.80
2023-03-04T03:23:11.574Z,25.90
2023-03-04T03:25:38.733Z,24.60
2023-03-04T03:28:06.004Z,24.08
2023-03-04T03:30:33.324Z,24.23
2023-03-04T03:33:00.221Z,23.90
2023-03-04T03:35:27.641Z,23.63
2023-03-04T03:37:54.376Z,25.25
2023-03-04T03:40:21.223Z,26.10
2023-03-04T03:42:48.174Z,25.95
2023-03-04T03:45:15.026Z,27.48
2023-03-04T03:47:41.792Z,28.02
2023-03-04T03:50:09.765Z,27.65
2023-03-04T03:52:36.579Z,27.63
2023-03-04T03:55:03.608Z,28.58
2023-03-04T03:57:30.440Z,28.20
2023-03-04T03:59:57.268Z,29.00
2023-03-04T04:02:24.278Z,27.38
2023-03-04T04:04:51.451Z,29.67
2023-03-04T04:07:18.822Z,29.05
2023-03-04T04:09:45.716Z,30.05
2023-03-04T04:12:14.714Z,30.15
2023-03-04T04:14:41.730Z,29.05
2023-03-04T04:17:09.316Z,30.75
2023-03-04T04:19:36.324Z,30.80
2023-03-04T04:22:04.086Z,30.35
2023-03-04T04:24:30.863Z,29.65
2023-03-04T04:26:58.135Z,26.60
2023-03-04T04:29:24.945Z,26.65
2023-03-04T04:31:51.759Z,25.48
2023-03-04T04:34:18.867Z,25.95
2023-03-04T04:36:45.676Z,26.50
2023-03-04T04:39:12.880Z,27.42
2023-03-04T04:41:43.453Z,29.05
2023-03-04T04:44:10.859Z,29.77
2023-03-04T04:46:38.168Z,32.80
2023-03-04T04:49:05.816Z,30.95
2023-03-04T04:51:34.754Z,31.42
2023-03-04T04:54:02.375Z,31.15
2023-03-04T04:56:29.581Z,28.35
2023-03-04T04:58:59.055Z,26.17
2023-03-04T05:01:27.086Z,26.35
2023-03-04T05:03:55.519Z,26.05
2023-03-04T05:06:23.974Z,23.73
2023-03-04T05:08:51.800Z,26.13
2023-03-04T05:11:19.547Z,26.52
2023-03-04T05:13:46.906Z,29.30
2023-03-04T05:16:14.500Z,27.48
2023-03-04T05:18:41.920Z,28.33
2023-03-04T05:21:09.128Z,27.95
2023-03-04T05:23:40.112Z,28.17
2023-03-04T05:26:08.448Z,27.00
2023-03-04T05:28:35.805Z,28.13
2023-03-04T05:31:03.621Z,30.27
2023-03-04T05:33:30.804Z,36.35
2023-03-04T05:35:58.324Z,34.35
2023-03-04T05:38:25.801Z,36.90
2023-03-04T05:41:00.736Z,33.35
2023-03-04T05:43:28.740Z,30.38
2023-03-04T05:45:56.040Z,28.58
2023-03-04T05:48:23.530Z,28.27
2023-03-04T05:50:57.944Z,31.05
2023-03-04T05:53:25.338Z,30.85
2023-03-04T05:55:52.564Z,30.98
2023-03-04T05:58:20.537Z,32.40
2023-03-04T06:00:48.188Z,32.00
2023-03-04T06:03:17.918Z,31.80
2023-03-04T06:05:44.949Z,30.85
2023-03-04T06:08:13.158Z,28.48
2023-03-04T06:10:41.484Z,28.67
2023-03-04T06:13:09.444Z,24.80
2023-03-04T06:15:36.973Z,24.73
2023-03-04T06:18:05.020Z,25.98
2023-03-04T06:20:31.879Z,27.67
2023-03-04T06:22:58.860Z,28.67
2023-03-04T06:25:25.931Z,25.67
2023-03-04T06:27:55.142Z,25.70
2023-03-04T06:30:22.662Z,28.00
2023-03-04T06:32:49.431Z,25.20
2023-03-04T06:35:16.989Z,23.98
2023-03-04T06:37:44.018Z,26.20
2023-03-04T06:40:11.763Z,23.75
2023-03-04T06:42:40.296Z,23.33
2023-03-04T06:45:07.997Z,24.58
2023-03-04T06:47:34.789Z,20.75
2023-03-04T06:50:03.208Z,23.38
2023-03-04T06:52:30.078Z,26.38
2023-03-04T06:54:56.981Z,23.20
2023-03-04T06:57:23.921Z,20.85
2023-03-04T06:59:50.874Z,23.00
2023-03-04T07:02:17.860Z,20.80
2023-03-04T07:04:44.679Z,20.90
2023-03-04T07:07:12.414Z,22.10
2023-03-04T07:09:39.561Z,21.77
2023-03-04T07:12:06.544Z,19.48
2023-03-04T07:14:33.430Z,17.15
2023-03-04T07:17:00.462Z,18.92
2023-03-04T07:19:27.286Z,17.55
2023-03-04T07:21:54.163Z,17.90
2023-03-04T07:24:21.038Z,15.30
2023-03-04T07:26:47.927Z,16.48
2023-03-04T07:29:14.907Z,15.30
2023-03-04T07:31:41.886Z,14.35
2023-03-04T07:34:12.240Z,13.82
2023-03-04T07:36:39.103Z,14.82
2023-03-04T07:39:07.357Z,13.55
2023-03-04T07:41:36.541Z,14.05
2023-03-04T07:44:04.814Z,16.65
2023-03-04T07:46:31.780Z,16.00
2023-03-04T07:48:58.543Z,16.83
2023-03-04T07:51:27.298Z,16.67
2023-03-04T07:53:57.410Z,23.23
2023-03-04T07:56:27.542Z,21.52
2023-03-04T07:58:54.795Z,23.52
2023-03-04T08:01:27.143Z,16.17
2023-03-04T08:03:53.975Z,19.92
2023-03-04T08:06:22.369Z,16.38
2023-03-04T08:08:50.000Z,15.48
2023-03-04T08:11:21.187Z,14.23
2023-03-04T08:13:48.754Z,10.52
2023-03-04T08:16:18.918Z,10.63
2023-03-04T08:18:48.485Z,13.27
2023-03-04T08:21:19.364Z,13.98
2023-03-04T08:23:47.124Z,12.05
2023-03-04T08:26:26.416Z,14.82
2023-03-04T08:28:54.440Z,11.55
2023-03-04T08:31:21.669Z,10.88
2023-03-04T08:33:48.610Z,10.35
2023-03-04T08:36:16.603Z,12.73
2023-03-04T08:38:43.531Z,12.68
2023-03-04T08:41:11.010Z,14.90
2023-03-04T08:43:37.890Z,11.63
2023-03-04T08:46:05.466Z,22.20
2023-03-04T08:48:33.013Z,11.48
2023-03-04T08:51:00.136Z,10.18
2023-03-04T08:53:26.925Z,10.90
2023-03-04T08:55:53.796Z,10.55
2023-03-04T08:58:20.807Z,9.65
2023-03-04T09:00:49.010Z,10.35
2023-03-04T09:03:17.262Z,10.55
2023-03-04T09:05:46.220Z,10.82
2023-03-04T09:08:14.139Z,11.48
2023-03-04T09:10:41.513Z,77.82
2023-03-04T09:13:11.485Z,28.48
2023-03-04T09:15:44.879Z,12.65
2023-03-04T09:18:11.924Z,13.63
2023-03-04T09:20:38.978Z,10.90
2023-03-04T09:23:06.720Z,11.65
2023-03-04T09:25:33.963Z,11.20
2023-03-04T09:28:00.764Z,16.83
2023-03-04T09:30:29.055Z,13.20
2023-03-04T09:32:56.126Z,23.13
2023-03-04T09:35:23.378Z,13.20
2023-03-04T09:37:52.998Z,16.15
2023-03-04T09:40:30.018Z,13.18
2023-03-04T09:43:03.488Z,14.68
2023-03-04T09:45:58.861Z,11.77
2023-03-04T09:48:29.176Z,12.27
2023-03-04T09:50:55.979Z,14.48
2023-03-04T09:53:44.180Z,14.05
2023-03-04T09:56:12.230Z,23.63
2023-03-04T09:59:24.248Z,16.08
2023-03-04T10:01:58.383Z,13.93
2023-03-04T10:04:40.310Z,15.10
2023-03-04T10:07:17.725Z,15.35
2023-03-04T10:09:53.964Z,14.30
2023-03-04T10:12:25.872Z,13.82
2023-03-04T10:14:59.748Z,15.40
2023-03-04T10:17:31.015Z,13.07
2023-03-04T10:20:08.344Z,14.93
2023-03-04T10:22:39.599Z,15.25
2023-03-04T10:25:17.546Z,14.70
2023-03-04T10:27:50.609Z,13.73
2023-03-04T10:30:30.900Z,14.00
2023-03-04T10:32:58.137Z,13.80
2023-03-04T10:35:32.358Z,17.20
2023-03-04T10:38:03.186Z,15.50
2023-03-04T10:40:37.024Z,18.17
2023-03-04T10:43:08.128Z,12.50
2023-03-04T10:45:40.408Z,13.00
2023-03-04T10:48:21.122Z,15.40
2023-03-04T10:50:47.955Z,14.53
2023-03-04T10:53:33.814Z,14.43
2023-03-04T10:56:01.089Z,13.82
2023-03-04T10:58:27.932Z,14.05
2023-03-04T11:01:05.956Z,12.15
2023-03-04T11:03:37.367Z,12.82
2023-03-04T11:08:58.020Z,16.90
2023-03-04T11:11:38.211Z,12.32
2023-03-04T11:14:34.751Z,65.32
2023-03-04T11:17:04.209Z,11.77
2023-03-04T11:19:43.032Z,11.55
2023-03-04T11:22:13.497Z,11.88
2023-03-04T11:24:40.506Z,11.87
2023-03-04T11:27:17.680Z,15.65
2023-03-04T11:30:22.990Z,14.07
2023-03-04T11:32:53.812Z,11.25
2023-03-04T11:35:37.390Z,10.70
2023-03-04T11:38:21.053Z,11.52
2023-03-04T11:40:57.199Z,10.55
2023-03-04T11:43:42.429Z,10.55
2023-03-04T11:46:13.299Z,9.68
2023-03-04T11:48:52.191Z,11.10
2023-03-04T11:51:35.204Z,12.23
2023-03-04T11:54:27.188Z,11.93
2023-03-04T11:57:06.283Z,14.30
2023-03-04T12:00:04.584Z,14.07
2023-03-04T12:03:24.704Z,12.77
2023-03-04T12:06:23.642Z,16.23
2023-03-04T12:09:27.855Z,11.43
2023-03-04T12:12:16.278Z,12.07
2023-03-04T12:14:57.769Z,11.82
2023-03-04T12:20:21.778Z,10.95
2023-03-04T12:23:00.712Z,12.00
2023-03-04T12:25:41.232Z,13.77
2023-03-04T12:28:38.868Z,12.23
2023-03-04T12:31:34.340Z,18.13
2023-03-04T12:34:19.444Z,16.45
2023-03-04T12:37:11.537Z,16.90
2023-03-04T12:39:49.836Z,13.82
2023-03-04T12:42:25.901Z,12.65
2023-03-04T12:45:25.532Z,12.63
2023-03-04T12:48:04.427Z,11.32
2023-03-04T12:50:31.168Z,10.80
2023-03-04T12:53:17.708Z,12.18
2023-03-04T12:55:47.292Z,11.75
2023-03-04T12:58:18.879Z,10.77
2023-03-04T13:01:03.631Z,10.88
2023-03-04T13:03:30.533Z,11.60
2023-03-04T13:06:23.923Z,10.88
2023-03-04T13:09:15.570Z,16.10
2023-03-04T13:14:22.685Z,9.70
2023-03-04T13:16:54.279Z,8.35
2023-03-04T13:19:42.968Z,10.13
2023-03-04T13:22:36.011Z,23.45
2023-03-04T13:25:44.346Z,11.05
2023-03-04T13:28:11.405Z,10.38
2023-03-04T13:30:38.286Z,10.93
2023-03-04T13:33:11.292Z,11.70
2023-03-04T13:35:47.249Z,9.73
2023-03-04T13:38:27.706Z,10.27
2023-03-04T13:41:00.592Z,12.93
2023-03-04T13:43:56.052Z,11.75
2023-03-04T13:46:23.992Z,11.25
2023-03-04T13:48:51.142Z,10.82
2023-03-04T13:51:28.875Z,10.77
2023-03-04T13:54:13.171Z,10.10
2023-03-04T13:56:41.849Z,10.20
2023-03-04T13:59:08.565Z,9.63
2023-03-04T14:01:39.345Z,8.75
2023-03-04T14:04:34.409Z,10.23
2023-03-04T14:07:05.007Z,9.55
2023-03-04T14:09:35.078Z,10.67
2023-03-04T14:12:15.815Z,9.85
2023-03-04T14:14:50.583Z,9.57
2023-03-04T14:17:25.806Z,10.57
2023-03-04T14:19:53.974Z,13.77
2023-03-04T14:22:25.463Z,16.88
2023-03-04T14:27:22.909Z,8.85
2023-03-04T14:30:28.770Z,9.52
2023-03-04T14:33:03.129Z,8.82
2023-03-04T14:35:32.081Z,8.38
2023-03-04T14:38:05.986Z,12.52
2023-03-04T14:40:40.418Z,10.10
2023-03-04T14:43:18.000Z,9.07
2023-03-04T14:45:47.996Z,11.65
2023-03-04T14:48:46.105Z,12.45
2023-03-04T14:51:41.741Z,11.50
2023-03-04T14:54:27.815Z,19.00
2023-03-04T14:56:54.868Z,18.27
2023-03-04T14:59:33.429Z,13.18
2023-03-04T15:02:53.048Z,10.88
2023-03-04T15:05:30.568Z,11.85
2023-03-04T15:08:01.158Z,11.50
2023-03-04T15:10:36.138Z,12.97
2023-03-04T15:13:05.827Z,13.65
2023-03-04T15:15:33.105Z,13.98
2023-03-04T15:18:02.446Z,16.25
2023-03-04T15:20:31.806Z,15.80
2023-03-04T15:23:01.545Z,14.40
2023-03-04T15:25:29.867Z,18.65
2023-03-04T15:27:58.305Z,18.67
2023-03-04T15:30:28.737Z,14.88
2023-03-04T15:32:57.395Z,17.25
2023-03-04T15:35:27.642Z,18.35
2023-03-04T15:37:56.201Z,20.75
2023-03-04T15:40:39.065Z,23.17
2023-03-04T15:43:10.144Z,20.42
2023-03-04T15:45:39.168Z,20.58
2023-03-04T15:48:11.023Z,30.00
2023-03-04T15:50:42.015Z,31.98
2023-03-04T15:53:15.306Z,31.95
2023-03-04T15:55:45.319Z,58.90
2023-03-04T15:58:13.584Z,52.63
2023-03-04T16:00:40.580Z,37.95
2023-03-04T16:03:14.209Z,34.70
2023-03-04T16:05:41.274Z,38.05
2023-03-04T16:08:13.051Z,54.63
2023-03-04T16:10:40.061Z,48.38
2023-03-04T16:13:06.847Z,54.17
2023-03-04T16:15:33.707Z,51.15
2023-03-04T16:18:00.723Z,35.22
2023-03-04T16:20:30.143Z,36.60
2023-03-04T16:23:00.684Z,24.63
2023-03-04T16:25:28.745Z,27.93
2023-03-04T16:27:56.667Z,30.67
2023-03-04T16:30:26.039Z,28.83
2023-03-04T16:32:53.421Z,32.85
2023-03-04T16:35:22.079Z,40.67
2023-03-04T16:37:50.843Z,48.70
2023-03-04T16:40:20.835Z,41.65
2023-03-04T16:42:47.733Z,37.67
2023-03-04T16:45:20.145Z,51.78
2023-03-04T16:47:47.003Z,43.53
2023-03-04T16:50:20.110Z,52.22
2023-03-04T16:52:48.871Z,49.83
2023-03-04T16:55:21.999Z,53.90
2023-03-04T16:57:49.092Z,50.47
2023-03-04T17:00:18.301Z,38.25
2023-03-04T17:02:50.459Z,38.47
2023-03-04T17:05:19.585Z,37.60
2023-03-04T17:07:46.494Z,38.42
2023-03-04T17:10:14.821Z,43.78
2023-03-04T17:12:42.466Z,41.30
2023-03-04T17:15:14.763Z,50.50
2023-03-04T17:17:42.737Z,63.30
2023-03-04T17:20:13.529Z,75.68
2023-03-04T17:22:40.419Z,77.35
2023-03-04T17:25:07.757Z,73.82
2023-03-04T17:27:34.550Z,71.55
2023-03-04T17:30:01.535Z,53.72
2023-03-04T17:32:28.579Z,52.60
2023-03-04T17:34:55.855Z,48.80
2023-03-04T17:37:23.312Z,49.72
2023-03-04T17:39:50.639Z,40.40
2023-03-04T17:42:17.621Z,27.58
2023-03-04T17:44:45.603Z,23.17
2023-03-04T17:47:12.661Z,22.67
2023-03-04T17:49:39.452Z,45.65
2023-03-04T17:52:06.577Z,23.77
2023-03-04T17:54:33.554Z,24.83
2023-03-04T17:57:00.366Z,32.83
2023-03-04T17:59:27.222Z,48.28
2023-03-04T18:01:54.427Z,53.85
2023-03-04T18:04:21.507Z,92.50
2023-03-04T18:06:48.328Z,61.05
2023-03-04T18:09:15.099Z,58.35
2023-03-04T18:11:42.642Z,97.03
2023-03-04T18:14:09.623Z,102.90
2023-03-04T18:16:36.484Z,100.30
2023-03-04T18:19:03.473Z,84.03
2023-03-04T18:21:30.669Z,76.13
2023-03-04T18:23:58.096Z,65.45
2023-03-04T18:26:27.228Z,58.72
2023-03-04T18:28:55.089Z,72.50
2023-03-04T18:31:24.247Z,57.63
2023-03-04T18:33:51.900Z,51.70
2023-03-04T18:36:18.877Z,29.25
2023-03-04T18:38:45.720Z,22.77
2023-03-04T18:41:15.346Z,24.77
2023-03-04T18:43:42.897Z,24.23
2023-03-04T18:46:31.839Z,41.25
2023-03-04T18:49:05.464Z,48.50
2023-03-04T18:51:32.486Z,49.88
2023-03-04T18:53:59.280Z,43.97
2023-03-04T18:56:37.559Z,48.47
2023-03-04T18:59:17.338Z,44.08
2023-03-04T19:01:45.087Z,44.40
2023-03-04T19:04:14.517Z,41.08
2023-03-04T19:06:41.369Z,37.05
2023-03-04T19:09:08.597Z,37.00
2023-03-04T19:11:35.598Z,41.67
2023-03-04T19:14:02.815Z,47.65
2023-03-04T19:16:29.677Z,43.92
2023-03-04T19:18:56.521Z,25.30
2023-03-04T19:21:23.573Z,24.30
2023-03-04T19:23:50.506Z,27.17
2023-03-04T19:26:17.334Z,24.70
2023-03-04T19:28:44.209Z,25.92
2023-03-04T19:31:12.157Z,24.05
2023-03-04T19:33:40.438Z,25.65
2023-03-04T19:36:09.232Z,27.35
2023-03-04T19:38:36.855Z,28.88
2023-03-04T19:41:15.546Z,28.35
2023-03-04T19:43:42.685Z,31.05
2023-03-04T19:46:11.895Z,31.10
2023-03-04T19:48:39.878Z,32.60
2023-03-04T19:51:26.208Z,42.78
2023-03-04T19:53:54.580Z,59.22
2023-03-04T19:56:22.823Z,42.55
2023-03-04T19:58:50.564Z,38.33
2023-03-04T20:01:20.521Z,28.15
2023-03-04T20:03:47.428Z,25.00
2023-03-04T20:06:14.223Z,28.83
2023-03-04T20:08:41.066Z,33.40
2023-03-04T20:11:11.556Z,33.15
2023-03-04T20:13:38.597Z,33.55
2023-03-04T20:16:10.810Z,33.80
2023-03-04T20:18:38.588Z,32.78
2023-03-04T20:21:06.279Z,34.20
2023-03-04T20:23:35.481Z,36.10
2023-03-04T20:26:04.034Z,37.05
2023-03-04T20:28:31.320Z,32.90
2023-03-04T20:31:11.121Z,32.47
2023-03-04T20:33:37.992Z,41.15
2023-03-04T20:36:05.104Z,57.53
2023-03-04T20:38:31.978Z,41.33
2023-03-04T20:40:59.063Z,32.70
2023-03-04T20:43:28.615Z,31.95
2023-03-04T20:45:55.489Z,26.15
2023-03-04T20:48:22.448Z,29.50
2023-03-04T20:50:49.279Z,27.55
2023-03-04T20:53:16.170Z,24.30
2023-03-04T20:55:43.102Z,26.77
2023-03-04T20:58:10.314Z,25.17
2023-03-04T21:00:38.355Z,24.25
2023-03-04T21:03:05.309Z,26.60
2023-03-04T21:05:32.135Z,26.90
2023-03-04T21:07:59.209Z,25.27
2023-03-04T21:10:26.133Z,29.35
2023-03-04T21:12:53.219Z,33.40
2023-03-04T21:15:20.026Z,37.35
2023-03-04T21:17:47.154Z,31.88
2023-03-04T21:20:15.300Z,28.60
2023-03-04T21:22:42.167Z,28.95
2023-03-04T21:25:09.312Z,32.45
2023-03-04T21:27:42.616Z,35.47
2023-03-04T21:30:11.354Z,34.63
2023-03-04T21:32:39.081Z,35.28
2023-03-04T21:35:06.390Z,29.88
2023-03-04T21:37:34.021Z,30.95
2023-03-04T21:40:02.292Z,34.20
2023-03-04T21:42:29.148Z,32.60
2023-03-04T21:44:57.073Z,31.67
2023-03-04T21:47:23.930Z,30.15
2023-03-04T21:49:51.149Z,28.27
2023-03-04T21:52:19.650Z,25.67
2023-03-04T21:54:47.738Z,27.20
2023-03-04T21:57:14.605Z,25.15
2023-03-04T21:59:42.071Z,20.92
2023-03-04T22:02:17.821Z,19.48
2023-03-04T22:04:44.714Z,21.17
2023-03-04T22:07:12.576Z,22.90
2023-03-04T22:09:39.764Z,24.33
2023-03-04T22:12:07.060Z,22.38
2023-03-04T22:14:34.380Z,21.58
2023-03-04T22:17:01.216Z,22.20
2023-03-04T22:19:31.586Z,24.50
2023-03-04T22:21:59.308Z,26.25
2023-03-04T22:24:26.416Z,26.13
2023-03-04T22:26:53.756Z,22.25
2023-03-04T22:29:20.804Z,20.15
2023-03-04T22:31:47.871Z,20.65
2023-03-04T22:34:15.863Z,22.20
2023-03-04T22:36:45.593Z,22.58
2023-03-04T22:39:14.808Z,22.33
2023-03-04T22:41:42.280Z,21.02
2023-03-04T22:44:09.308Z,22.85
2023-03-04T22:46:38.390Z,21.83
2023-03-04T22:49:12.559Z,21.58
2023-03-04T22:51:43.742Z,22.02
2023-03-04T22:54:13.422Z,23.27
2023-03-04T22:56:40.305Z,22.08
2023-03-04T22:59:07.287Z,20.90
2023-03-04T23:01:34.391Z,21.73
2023-03-04T23:04:01.781Z,21.83
2023-03-04T23:06:30.490Z,20.55
2023-03-04T23:08:58.850Z,18.50
2023-03-04T23:11:29.231Z,17.98
2023-03-04T23:13:57.196Z,17.40
2023-03-04T23:16:25.557Z,17.83
2023-03-04T23:18:53.354Z,15.93
2023-03-04T23:21:24.987Z,15.75
2023-03-04T23:23:52.728Z,15.77
2023-03-04T23:26:23.613Z,14.45
2023-03-04T23:28:51.513Z,16.88
2023-03-04T23:31:19.206Z,17.45
2023-03-04T23:33:47.864Z,17.45
2023-03-04T23:36:17.468Z,15.20
2023-03-04T23:38:46.234Z,14.77
2023-03-04T23:41:22.985Z,15.27
2023-03-04T23:43:52.253Z,14.73
2023-03-04T23:46:19.210Z,15.02
2023-03-04T23:48:46.545Z,16.15
2023-03-04T23:51:19.957Z,17.70
2023-03-04T23:53:47.541Z,20.38
2023-03-04T23:56:27.109Z,18.65
2023-03-04T23:58:55.181Z,17.80
